Terminal Aerodrome Forecast
Issued by NWS

Home | Current Version | Previous Version | Text Only | Print | Product List | Glossary On
Versions: 1 2 3 4 5 6 7 8 9 10 11 12 13 14 15 16 17
000
FTUS41 KCAR 290520
TAFBHB
TAF
KBHB 290520Z 2906/3006 05009KT P6SM FEW250
     FM291400 11006KT P6SM FEW250
     FM292000 20010G17KT P6SM FEW250
     FM300200 24006KT P6SM FEW250=

USA.gov is the U.S. government's official web portal to all federal, state and local government web resources and services.